Time;durP1;ratioP1;P1;durP2;ratioP2;P2;SDS_P1;SDS_P2;PMS_P1;PMS_P2;Temp;Humidity;BMP_temperature;BMP_pressure;BME280_temperature;BME280_humidity;BME280_pressure;Samples;Min_cycle;Max_cycle;Signal;HPM_P1;HPM_P2
2021/06/26 00:00:21;;;;;;;170.07;161.17;;;13.40;99.90;;;;;;5095236;28;20947;-83
2021/06/26 00:02:48;;;;;;;170.53;161.37;;;13.50;99.90;;;;;;5095550;28;20448;-84
2021/06/26 00:05:18;;;;;;;172.50;163.37;;;13.30;99.90;;;;;;5095080;28;20545;-84
2021/06/26 00:07:47;;;;;;;183.57;174.20;;;13.30;99.90;;;;;;5094986;28;20547;-84
2021/06/26 00:10:18;;;;;;;173.20;164.30;;;13.40;99.90;;;;;;5082099;28;20474;-83
2021/06/26 00:12:45;;;;;;;170.07;161.40;;;13.20;99.90;;;;;;5074965;28;20539;-83
2021/06/26 00:15:13;;;;;;;162.57;154.27;;;13.30;99.90;;;;;;5074821;28;20466;-83
2021/06/26 00:17:42;;;;;;;158.07;149.53;;;13.20;99.90;;;;;;5074887;28;20456;-83
2021/06/26 00:20:10;;;;;;;162.00;153.30;;;13.20;99.90;;;;;;5074889;28;20830;-84
2021/06/26 00:22:39;;;;;;;154.17;145.80;;;13.00;99.90;;;;;;5074672;28;20944;-84
2021/06/26 00:25:06;;;;;;;162.67;154.10;;;13.00;99.90;;;;;;5073541;28;20525;-84
2021/06/26 00:27:36;;;;;;;170.73;161.47;;;13.00;99.90;;;;;;5074695;28;20555;-85
2021/06/26 00:30:06;;;;;;;169.00;160.27;;;13.00;99.90;;;;;;5074634;28;20490;-83
2021/06/26 00:32:39;;;;;;;174.40;165.17;;;12.90;99.90;;;;;;5074634;28;20461;-84
2021/06/26 00:35:11;;;;;;;189.47;180.33;;;13.20;99.90;;;;;;5074551;28;20456;-84
2021/06/26 00:37:41;;;;;;;184.93;175.87;;;13.10;99.90;;;;;;5074436;28;20521;-84
2021/06/26 00:40:10;;;;;;;183.87;173.93;;;13.10;99.90;;;;;;5072999;28;20464;-84
2021/06/26 00:42:38;;;;;;;163.77;154.77;;;13.00;99.90;;;;;;5074343;28;20462;-84
2021/06/26 00:45:13;;;;;;;194.77;184.80;;;13.00;99.90;;;;;;5074208;28;20481;-84
2021/06/26 00:47:48;;;;;;;208.10;197.10;;;12.90;99.90;;;;;;5074288;28;20461;-83
2021/06/26 00:50:17;;;;;;;215.63;204.73;;;13.00;99.90;;;;;;5074139;28;20529;-84
2021/06/26 00:52:46;;;;;;;180.30;171.00;;;13.10;99.90;;;;;;5074042;28;20464;-84
2021/06/26 00:55:27;;;;;;;;;;;;;;;;;;;;;
2021/06/26 00:58:01;;;;;;;156.50;148.23;;;13.00;99.90;;;;;;5073501;28;20897;-84
2021/06/26 01:00:31;;;;;;;163.87;154.80;;;12.90;99.90;;;;;;5073930;28;20487;-84
2021/06/26 01:03:01;;;;;;;162.37;153.07;;;12.90;99.90;;;;;;5073752;28;20528;-84
2021/06/26 01:05:28;;;;;;;176.87;167.23;;;13.00;99.90;;;;;;5073704;28;20479;-84
2021/06/26 01:07:57;;;;;;;172.50;163.10;;;12.90;99.90;;;;;;5073820;28;20543;-84
2021/06/26 01:10:24;;;;;;;176.47;167.70;;;12.90;99.90;;;;;;5072274;28;21048;-84
2021/06/26 01:12:57;;;;;;;167.10;158.43;;;12.90;99.90;;;;;;5073631;28;20451;-84
2021/06/26 01:15:26;;;;;;;179.57;170.60;;;13.00;99.90;;;;;;5073586;28;20553;-84
2021/06/26 01:18:05;;;;;;;169.50;160.50;;;13.00;99.90;;;;;;5073687;28;20954;-84
2021/06/26 01:20:34;;;;;;;160.40;151.50;;;13.10;99.90;;;;;;5072831;28;20462;-84
2021/06/26 01:23:28;;;;;;;166.83;157.50;;;12.90;99.90;;;;;;5073525;28;20460;-84
2021/06/26 01:25:56;;;;;;;158.10;149.27;;;13.00;99.90;;;;;;5073016;28;20462;-83
2021/06/26 01:28:23;;;;;;;150.50;142.50;;;12.80;99.90;;;;;;5073441;28;20453;-84
2021/06/26 01:30:50;;;;;;;143.67;135.80;;;12.90;99.90;;;;;;5073333;28;20487;-84
2021/06/26 01:33:17;;;;;;;150.53;142.77;;;12.90;99.90;;;;;;5073312;28;20826;-84
2021/06/26 01:35:44;;;;;;;149.93;142.07;;;12.70;99.90;;;;;;5073368;28;20454;-83
2021/06/26 01:38:23;;;;;;;;;;;;;;;;;;;;;
2021/06/26 01:40:53;;;;;;;141.20;133.70;;;12.80;99.90;;;;;;5070527;28;20458;-84
2021/06/26 01:43:20;;;;;;;147.57;139.97;;;12.80;99.90;;;;;;5073201;28;20455;-84
2021/06/26 01:45:47;;;;;;;140.03;132.37;;;12.80;99.90;;;;;;5073159;28;20477;-85
2021/06/26 01:48:18;;;;;;;148.87;140.73;;;12.80;99.90;;;;;;5073166;28;20539;-84
2021/06/26 01:50:53;;;;;;;166.93;157.73;;;12.70;99.90;;;;;;5073095;28;20879;-83
2021/06/26 01:53:25;;;;;;;168.70;159.60;;;12.60;99.90;;;;;;5073114;28;20968;-84
2021/06/26 01:55:54;;;;;;;183.00;173.87;;;12.60;99.90;;;;;;5072417;28;20456;-84
2021/06/26 01:58:21;;;;;;;177.30;167.70;;;12.70;99.90;;;;;;5072888;28;20453;-84
2021/06/26 02:00:51;;;;;;;171.40;162.37;;;12.70;99.90;;;;;;5073151;28;20997;-84
2021/06/26 02:03:20;;;;;;;168.27;158.97;;;12.70;99.90;;;;;;5072835;28;20817;-84
2021/06/26 02:05:58;;;;;;;;;;;;;;;;;;;;;
2021/06/26 02:08:39;;;;;;;;;;;;;;;;;;;;;
2021/06/26 02:11:05;;;;;;;162.60;154.20;;;12.50;99.90;;;;;;5089077;28;20986;-83
2021/06/26 02:13:33;;;;;;;178.63;169.17;;;12.60;99.90;;;;;;5092961;28;20549;-84
2021/06/26 02:16:00;;;;;;;184.57;174.97;;;12.60;99.90;;;;;;5093106;28;20512;-84
2021/06/26 02:18:31;;;;;;;174.43;164.77;;;12.70;99.90;;;;;;5092939;28;21015;-84
2021/06/26 02:21:00;;;;;;;187.00;177.20;;;12.60;99.90;;;;;;5092956;28;20449;-83
2021/06/26 02:23:32;;;;;;;176.17;166.57;;;12.50;99.90;;;;;;5092361;28;20455;-84
2021/06/26 02:25:59;;;;;;;160.57;151.80;;;12.70;99.90;;;;;;5092992;28;20448;-84
2021/06/26 02:28:26;;;;;;;167.43;157.70;;;12.40;99.90;;;;;;5092793;28;20625;-83
2021/06/26 02:30:53;;;;;;;172.20;162.97;;;12.30;99.90;;;;;;5093053;28;20480;-84
2021/06/26 02:33:47;;;;;;;192.60;182.50;;;12.40;99.90;;;;;;5097028;28;20951;-84
2021/06/26 02:36:16;;;;;;;177.47;167.60;;;12.40;99.90;;;;;;5097162;28;20471;-83
2021/06/26 02:38:51;;;;;;;171.37;162.27;;;12.30;99.90;;;;;;5095787;28;20536;-84
2021/06/26 02:41:21;;;;;;;188.80;176.83;;;12.30;99.90;;;;;;5096815;28;21192;-84
2021/06/26 02:43:59;;;;;;;207.43;194.17;;;12.40;99.90;;;;;;5096857;28;20822;-84
2021/06/26 02:46:33;;;;;;;211.50;198.30;;;12.30;99.90;;;;;;5096865;28;20851;-84
2021/06/26 02:49:00;;;;;;;185.07;174.50;;;12.40;99.90;;;;;;5096882;28;20808;-83
2021/06/26 02:51:29;;;;;;;177.67;168.00;;;12.30;99.90;;;;;;5096466;28;20501;-84
2021/06/26 02:54:03;;;;;;;161.10;152.17;;;12.30;99.90;;;;;;5095469;28;20454;-84
2021/06/26 02:56:30;;;;;;;162.23;153.07;;;12.30;99.90;;;;;;5096689;28;20456;-83
2021/06/26 02:59:02;;;;;;;154.30;145.10;;;12.20;99.90;;;;;;5096802;28;20448;-84
2021/06/26 03:01:30;;;;;;;157.90;148.90;;;12.10;99.90;;;;;;5096695;28;20453;-84
2021/06/26 03:03:59;;;;;;;151.17;140.37;;;12.10;99.90;;;;;;5096195;28;20872;-84
2021/06/26 03:06:29;;;;;;;154.13;144.87;;;12.20;99.90;;;;;;5096319;28;20478;-84
2021/06/26 03:09:00;;;;;;;147.60;138.30;;;12.10;99.90;;;;;;5095205;28;20479;-84
2021/06/26 03:11:27;;;;;;;148.13;137.90;;;12.30;99.90;;;;;;5096220;28;20462;-84
2021/06/26 03:13:54;;;;;;;171.57;159.77;;;12.30;99.90;;;;;;5096545;28;20474;-83
2021/06/26 03:16:25;;;;;;;174.73;163.27;;;12.20;99.90;;;;;;5096221;28;20451;-83
2021/06/26 03:18:56;;;;;;;193.47;181.30;;;12.30;99.90;;;;;;5096293;28;20811;-84
2021/06/26 03:21:27;;;;;;;209.27;195.77;;;12.20;99.90;;;;;;5096356;28;20462;-84
2021/06/26 03:23:56;;;;;;;214.80;199.97;;;12.30;99.90;;;;;;5094973;28;20452;-84
2021/06/26 03:26:32;;;;;;;217.97;203.83;;;12.20;99.90;;;;;;5096102;28;20446;-84
2021/06/26 03:29:01;;;;;;;225.70;211.03;;;12.20;99.90;;;;;;5095839;28;20444;-84
2021/06/26 03:31:33;;;;;;;228.70;213.90;;;12.30;99.90;;;;;;5095904;28;20493;-84
2021/06/26 03:34:01;;;;;;;234.47;218.63;;;12.30;99.90;;;;;;5096021;28;20447;-84
2021/06/26 03:36:30;;;;;;;237.00;220.67;;;12.30;99.90;;;;;;5095872;28;20460;-84
2021/06/26 03:38:59;;;;;;;242.57;224.80;;;12.40;99.90;;;;;;5094741;28;20459;-84
2021/06/26 03:41:30;;;;;;;245.97;228.33;;;12.60;99.90;;;;;;5095759;28;20459;-84
2021/06/26 03:44:16;;;;;;;250.57;233.80;;;12.60;99.90;;;;;;5094798;28;20597;-83
2021/06/26 03:46:54;;;;;;;;;;;;;;;;;;;;;
2021/06/26 03:49:34;;;;;;;213.70;199.97;;;12.60;99.90;;;;;;5095205;28;20518;-83
2021/06/26 03:52:01;;;;;;;202.50;189.30;;;12.70;99.90;;;;;;5095522;28;20490;-83
2021/06/26 03:54:28;;;;;;;175.00;163.10;;;12.60;99.90;;;;;;5094395;28;20845;-79
2021/06/26 03:56:56;;;;;;;156.20;146.40;;;12.40;99.90;;;;;;5095493;28;20519;-81
2021/06/26 03:59:23;;;;;;;161.03;149.43;;;12.40;99.90;;;;;;5095387;28;20454;-82
2021/06/26 04:01:50;;;;;;;167.70;156.67;;;12.50;99.90;;;;;;5095509;28;20454;-76
2021/06/26 04:04:19;;;;;;;171.90;161.20;;;12.50;99.90;;;;;;5095077;28;20453;-80
2021/06/26 04:06:47;;;;;;;164.50;154.00;;;12.60;99.90;;;;;;5094998;28;20511;-80
2021/06/26 04:09:13;;;;;;;165.50;153.63;;;12.50;99.90;;;;;;5093901;28;20453;-82
2021/06/26 04:11:40;;;;;;;173.03;162.17;;;12.60;99.90;;;;;;5095223;28;20514;-81
2021/06/26 04:14:09;;;;;;;167.67;155.87;;;12.70;99.90;;;;;;5095214;28;20543;-81
2021/06/26 04:16:36;;;;;;;158.70;148.83;;;12.70;99.90;;;;;;5095216;28;20558;-81
2021/06/26 04:19:03;;;;;;;172.07;161.67;;;12.90;99.90;;;;;;5094978;28;20486;-81
2021/06/26 04:21:30;;;;;;;158.97;148.13;;;12.80;99.90;;;;;;5095047;28;20486;-82
2021/06/26 04:23:57;;;;;;;154.87;144.50;;;12.90;99.90;;;;;;5093864;28;20581;-82
2021/06/26 04:26:23;;;;;;;158.23;146.90;;;13.00;99.90;;;;;;5094806;28;20491;-83
2021/06/26 04:28:51;;;;;;;166.30;155.77;;;13.20;99.90;;;;;;5094896;28;20467;-81
2021/06/26 04:31:19;;;;;;;157.03;146.93;;;13.20;99.90;;;;;;5094598;28;20443;-81
2021/06/26 04:33:46;;;;;;;162.43;152.63;;;13.40;99.90;;;;;;5094714;28;20459;-81
2021/06/26 04:36:45;;;;;;;155.80;146.87;;;13.40;99.90;;;;;;5094799;28;20865;-85
2021/06/26 04:39:14;;;;;;;149.30;139.80;;;13.60;99.90;;;;;;5074432;28;20780;-82
2021/06/26 04:41:43;;;;;;;162.43;152.07;;;13.80;99.90;;;;;;5094766;28;20479;-82
2021/06/26 04:44:10;;;;;;;140.13;131.60;;;13.80;99.90;;;;;;5094217;28;20995;-76
2021/06/26 04:46:38;;;;;;;137.87;129.00;;;13.90;99.90;;;;;;5094491;28;20468;-78
2021/06/26 04:49:05;;;;;;;102.03;94.43;;;14.00;99.90;;;;;;5094632;28;20462;-77
2021/06/26 04:51:35;;;;;;;108.33;99.60;;;14.00;99.90;;;;;;5094522;28;20450;-77
2021/06/26 04:54:02;;;;;;;107.70;100.10;;;14.00;99.90;;;;;;5093022;28;20451;-77
2021/06/26 04:56:29;;;;;;;120.53;112.60;;;14.00;99.90;;;;;;5093426;28;20452;-77
2021/06/26 04:58:56;;;;;;;138.57;128.47;;;14.10;99.90;;;;;;5094303;28;20456;-76
2021/06/26 05:01:23;;;;;;;148.20;138.60;;;14.10;99.90;;;;;;5094209;28;20514;-82
2021/06/26 05:04:25;;;;;;;141.00;132.20;;;14.00;99.90;;;;;;5094170;28;20484;-84
2021/06/26 05:06:56;;;;;;;133.23;124.43;;;14.00;99.90;;;;;;5088306;28;20440;-84
2021/06/26 05:09:24;;;;;;;145.23;136.40;;;14.20;99.90;;;;;;5092614;28;20474;-83
2021/06/26 05:11:57;;;;;;;150.30;141.43;;;14.20;99.90;;;;;;5094187;28;20809;-84
2021/06/26 05:14:24;;;;;;;139.67;130.30;;;14.20;99.90;;;;;;5093967;28;20448;-84
2021/06/26 05:16:51;;;;;;;135.87;126.77;;;14.20;99.90;;;;;;5093904;28;20457;-83
2021/06/26 05:19:20;;;;;;;135.13;125.93;;;14.30;99.90;;;;;;5094008;28;20452;-84
2021/06/26 05:21:47;;;;;;;152.07;142.70;;;14.30;99.90;;;;;;5093653;28;20479;-84
2021/06/26 05:24:16;;;;;;;142.37;133.73;;;14.40;99.90;;;;;;5092726;28;20480;-82
2021/06/26 05:26:43;;;;;;;115.63;107.23;;;14.50;99.90;;;;;;5093909;28;20513;-83
2021/06/26 05:29:11;;;;;;;70.90;63.90;;;14.80;99.90;;;;;;5093686;28;20468;-83
2021/06/26 05:31:37;;;;;;;47.50;37.73;;;15.20;99.90;;;;;;5093724;28;20542;-82
2021/06/26 05:34:08;;;;;;;48.50;28.30;;;15.50;99.90;;;;;;5093412;28;20448;-83
2021/06/26 05:36:36;;;;;;;47.27;20.00;;;15.70;99.90;;;;;;5093570;28;20437;-84
2021/06/26 05:39:04;;;;;;;42.37;17.00;;;16.20;99.90;;;;;;5092234;28;20898;-83
2021/06/26 05:41:43;;;;;;;48.03;17.40;;;16.60;99.90;;;;;;5093311;28;20504;-84
2021/06/26 05:44:23;;;;;;;43.53;16.43;;;16.90;99.90;;;;;;5093353;28;20479;-83
2021/06/26 05:46:51;;;;;;;49.70;15.20;;;17.10;99.90;;;;;;5093497;28;20982;-83
2021/06/26 05:49:31;;;;;;;49.50;15.60;;;17.60;99.90;;;;;;5093497;28;20485;-82
2021/06/26 05:51:58;;;;;;;48.83;14.80;;;18.00;95.90;;;;;;5092765;28;20866;-83
2021/06/26 05:54:25;;;;;;;47.30;14.30;;;18.70;91.50;;;;;;5091074;28;20462;-79
2021/06/26 05:56:53;;;;;;;49.77;14.60;;;18.80;82.70;;;;;;5093496;28;20487;-78
2021/06/26 05:59:22;;;;;;;51.40;13.50;;;19.30;77.10;;;;;;5093221;28;20507;-81
2021/06/26 06:01:49;;;;;;;56.43;14.60;;;19.60;66.50;;;;;;5093128;28;21073;-80
2021/06/26 06:04:16;;;;;;;57.40;13.93;;;19.90;62.80;;;;;;5092830;28;20538;-79
2021/06/26 06:06:43;;;;;;;58.20;15.83;;;20.10;56.60;;;;;;5092538;28;21023;-81
2021/06/26 06:09:10;;;;;;;61.90;16.40;;;20.40;53.60;;;;;;5092070;28;20456;-81
2021/06/26 06:11:37;;;;;;;63.67;17.07;;;20.70;51.80;;;;;;5093100;28;20859;-81
2021/06/26 06:14:05;;;;;;;64.47;17.37;;;21.10;45.70;;;;;;5093052;28;20544;-79
2021/06/26 06:16:33;;;;;;;66.47;19.03;;;21.30;42.60;;;;;;5093204;28;20867;-80
2021/06/26 06:19:01;;;;;;;65.57;19.80;;;21.20;40.30;;;;;;5093064;28;20867;-80
2021/06/26 06:21:28;;;;;;;68.70;21.20;;;21.10;41.20;;;;;;5093010;28;20486;-80
2021/06/26 06:23:55;;;;;;;67.53;22.13;;;21.50;37.10;;;;;;5091828;28;20865;-83
2021/06/26 06:26:21;;;;;;;71.87;25.70;;;21.70;38.90;;;;;;5093141;28;20477;-81
2021/06/26 06:28:48;;;;;;;70.60;26.17;;;21.60;36.80;;;;;;5092910;28;20500;-81
2021/06/26 06:31:17;;;;;;;73.40;21.83;;;21.70;35.70;;;;;;5092882;28;20454;-81
2021/06/26 06:33:43;;;;;;;71.97;19.43;;;22.10;34.10;;;;;;5092960;28;20428;-81
2021/06/26 06:36:10;;;;;;;72.50;25.67;;;22.40;31.30;;;;;;5092952;28;20541;-81
2021/06/26 06:38:37;;;;;;;77.03;28.33;;;22.40;31.00;;;;;;5091594;28;20527;-81
2021/06/26 06:41:04;;;;;;;69.43;21.13;;;22.20;30.80;;;;;;5092710;28;20489;-81
2021/06/26 06:43:31;;;;;;;69.47;19.47;;;22.20;33.30;;;;;;5092773;28;20508;-82
2021/06/26 06:46:05;;;;;;;69.80;20.00;;;21.90;33.90;;;;;;5092778;28;20560;-84
2021/06/26 06:51:44;;;;;;;71.47;23.57;;;21.60;34.20;;;;;;5008643;28;20478;-80
2021/06/26 06:54:11;;;;;;;70.87;20.90;;;21.40;36.60;;;;;;5091488;28;20454;-81
2021/06/26 06:56:40;;;;;;;70.63;23.93;;;21.60;39.90;;;;;;5092662;28;20535;-82
2021/06/26 06:59:07;;;;;;;75.13;30.37;;;21.80;31.40;;;;;;5092826;28;20454;-81
2021/06/26 07:01:36;;;;;;;74.13;29.40;;;21.80;33.60;;;;;;5092790;28;20462;-82
2021/06/26 07:04:03;;;;;;;76.13;32.90;;;22.50;32.80;;;;;;5092492;28;20461;-82
2021/06/26 07:06:32;;;;;;;75.23;29.53;;;22.50;30.80;;;;;;5089150;28;20469;-83
2021/06/26 07:09:01;;;;;;;74.50;25.90;;;22.70;29.00;;;;;;5088999;28;20454;-82
2021/06/26 07:11:34;;;;;;;76.63;23.40;;;23.10;27.10;;;;;;5071000;28;20469;-81
2021/06/26 07:14:09;;;;;;;72.87;23.80;;;23.00;28.00;;;;;;5071153;28;20969;-83
2021/06/26 07:16:36;;;;;;;74.23;25.10;;;23.30;27.40;;;;;;5070941;28;20490;-82
2021/06/26 07:19:05;;;;;;;74.57;24.30;;;23.30;26.70;;;;;;5072951;28;20575;-79
2021/06/26 07:21:33;;;;;;;75.53;24.87;;;23.70;26.70;;;;;;5074693;28;20459;-82
2021/06/26 07:24:01;;;;;;;77.30;27.90;;;23.60;26.50;;;;;;5074384;28;20478;-80
2021/06/26 07:26:27;;;;;;;78.40;28.97;;;23.80;28.70;;;;;;5075845;28;20462;-82
2021/06/26 07:28:54;;;;;;;72.70;26.03;;;23.50;25.40;;;;;;5075158;28;20478;-79
2021/06/26 07:31:21;;;;;;;79.50;27.73;;;23.50;24.90;;;;;;5075659;28;20551;-79
2021/06/26 07:33:48;;;;;;;76.40;27.93;;;24.10;24.30;;;;;;5075620;28;20570;-77
2021/06/26 07:36:15;;;;;;;72.07;20.27;;;24.30;24.00;;;;;;5075577;28;20808;-81
2021/06/26 07:38:41;;;;;;;76.87;21.20;;;24.50;23.60;;;;;;5074345;28;20455;-81
2021/06/26 07:41:10;;;;;;;74.97;25.40;;;24.40;21.80;;;;;;5075542;28;20454;-80
2021/06/26 07:43:36;;;;;;;72.93;22.43;;;24.70;23.10;;;;;;5075221;28;21000;-80
2021/06/26 07:46:03;;;;;;;76.40;24.90;;;24.70;19.30;;;;;;5075622;28;20537;-79
2021/06/26 07:48:30;;;;;;;77.20;23.93;;;24.80;18.60;;;;;;5075553;28;20847;-82
2021/06/26 07:50:57;;;;;;;74.90;24.07;;;24.70;20.00;;;;;;5075453;28;20451;-81
2021/06/26 07:53:25;;;;;;;72.80;22.63;;;25.00;18.90;;;;;;5075422;28;20486;-83
2021/06/26 07:55:53;;;;;;;74.03;22.00;;;25.10;19.90;;;;;;5074030;28;20803;-76
2021/06/26 07:58:22;;;;;;;73.67;24.37;;;25.00;16.90;;;;;;5075206;28;20454;-83
2021/06/26 08:00:49;;;;;;;73.90;23.00;;;25.10;18.30;;;;;;5093023;28;21042;-81
2021/06/26 08:03:17;;;;;;;77.80;26.10;;;24.80;16.90;;;;;;5095385;28;20432;-82
2021/06/26 08:05:44;;;;;;;79.07;23.97;;;25.00;18.70;;;;;;5095132;28;21060;-78
2021/06/26 08:08:12;;;;;;;73.93;24.97;;;25.10;19.40;;;;;;5095187;28;20464;-81
2021/06/26 08:10:39;;;;;;;78.90;24.43;;;25.50;17.20;;;;;;5093739;28;20429;-81
2021/06/26 08:13:07;;;;;;;72.20;21.83;;;25.60;14.50;;;;;;5095058;28;20542;-82
2021/06/26 08:15:36;;;;;;;75.57;24.60;;;25.70;14.10;;;;;;5095109;28;20489;-80
2021/06/26 08:18:03;;;;;;;76.20;24.73;;;25.90;14.70;;;;;;5095016;28;20528;-84
2021/06/26 08:20:30;;;;;;;73.40;23.67;;;26.10;14.00;;;;;;5095039;28;20461;-82
2021/06/26 08:22:57;;;;;;;79.10;24.00;;;26.10;14.60;;;;;;5095014;28;20856;-76
2021/06/26 08:25:24;;;;;;;74.90;21.77;;;26.10;14.90;;;;;;5093698;28;20457;-79
2021/06/26 08:27:51;;;;;;;76.60;20.57;;;26.60;12.20;;;;;;5094930;28;21031;-78
2021/06/26 08:30:19;;;;;;;78.33;21.80;;;26.90;9.20;;;;;;5094375;28;20553;-76
2021/06/26 08:32:47;;;;;;;77.10;23.93;;;27.20;8.70;;;;;;5094628;28;20460;-79
2021/06/26 08:35:14;;;;;;;81.03;23.37;;;27.00;12.20;;;;;;5094738;28;20461;-85
2021/06/26 08:37:44;;;;;;;78.03;23.93;;;26.50;11.40;;;;;;5095348;28;20541;-81
2021/06/26 08:40:12;;;;;;;77.60;24.13;;;26.80;11.00;;;;;;5093256;28;20453;-77
2021/06/26 08:42:39;;;;;;;79.13;23.13;;;26.80;10.60;;;;;;5094616;28;20478;-86
2021/06/26 08:45:09;;;;;;;77.47;23.87;;;26.90;11.20;;;;;;5094631;28;20461;-85
2021/06/26 08:47:36;;;;;;;78.43;22.30;;;25.90;7.50;;;;;;5094547;28;20456;-86
2021/06/26 08:50:06;;;;;;;71.60;20.23;;;26.30;13.70;;;;;;5094471;28;21031;-85
2021/06/26 08:52:33;;;;;;;72.33;20.40;;;26.60;8.30;;;;;;5095001;28;20981;-83
2021/06/26 08:55:00;;;;;;;73.30;21.20;;;27.10;7.00;;;;;;5093065;28;20448;-82
2021/06/26 08:57:28;;;;;;;74.10;22.87;;;26.90;5.50;;;;;;5094359;28;21225;-84
2021/06/26 08:59:55;;;;;;;71.17;21.60;;;26.80;4.50;;;;;;5094075;28;20538;-85
2021/06/26 09:02:23;;;;;;;70.70;18.10;;;26.80;6.10;;;;;;5094157;28;20532;-85
2021/06/26 09:04:50;;;;;;;74.07;21.50;;;26.90;3.30;;;;;;5093941;28;20481;-86
2021/06/26 09:07:31;;;;;;;70.77;19.57;;;27.00;2.30;;;;;;5094189;28;20468;-81
2021/06/26 09:09:58;;;;;;;73.60;22.77;;;27.10;1.40;;;;;;5092869;28;20522;-85
2021/06/26 09:12:27;;;;;;;72.57;21.30;;;27.70;1.70;;;;;;5093918;28;20509;-85
2021/06/26 09:14:54;;;;;;;77.30;24.40;;;28.10;3.90;;;;;;5094090;28;20510;-82
2021/06/26 09:17:30;;;;;;;83.37;25.93;;;28.10;1.20;;;;;;5093938;28;20456;-78
2021/06/26 09:20:00;;;;;;;77.07;24.43;;;28.80;2.40;;;;;;5093979;28;20531;-84
2021/06/26 09:22:38;;;;;;;72.87;21.27;;;28.90;3.90;;;;;;5093909;28;20529;-85
2021/06/26 09:25:21;;;;;;;78.00;22.30;;;28.90;1.10;;;;;;5092616;28;20462;-87
2021/06/26 09:27:47;;;;;;;76.37;22.57;;;29.50;1.00;;;;;;5093625;28;20918;-79
2021/06/26 09:30:15;;;;;;;77.07;23.77;;;29.20;1.00;;;;;;5093721;28;20435;-79
2021/06/26 09:32:45;;;;;;;78.47;26.43;;;29.90;1.00;;;;;;5093631;28;20496;-85
2021/06/26 09:35:17;;;;;;;80.30;27.13;;;29.50;1.00;;;;;;5093683;28;20525;-84
2021/06/26 09:37:45;;;;;;;79.13;26.10;;;29.20;1.00;;;;;;5093652;28;20445;-85
2021/06/26 09:40:14;;;;;;;78.40;26.20;;;29.90;1.00;;;;;;5092290;28;20770;-84
2021/06/26 09:42:41;;;;;;;83.90;28.53;;;29.90;1.00;;;;;;5093004;28;20450;-80
2021/06/26 09:45:09;;;;;;;78.10;27.77;;;29.60;1.00;;;;;;5093494;28;20936;-80
2021/06/26 09:47:37;;;;;;;83.17;29.07;;;29.60;1.00;;;;;;5093448;28;20463;-83
2021/06/26 09:50:15;;;;;;;82.30;28.77;;;30.20;1.00;;;;;;5093470;28;20453;-87
2021/06/26 09:52:43;;;;;;;80.03;25.30;;;30.20;1.00;;;;;;5093439;28;20496;-82
2021/06/26 09:55:33;;;;;;;77.37;25.93;;;29.40;1.00;;;;;;5092043;28;20862;-82
2021/06/26 09:58:01;;;;;;;78.00;23.87;;;29.10;1.00;;;;;;5088775;28;20442;-83
2021/06/26 10:00:30;;;;;;;78.97;25.93;;;29.70;1.00;;;;;;5093216;28;20481;-87
2021/06/26 10:02:58;;;;;;;79.67;26.60;;;29.40;1.00;;;;;;5093471;28;20543;-84
2021/06/26 10:05:26;;;;;;;80.37;25.67;;;29.20;1.00;;;;;;5092724;28;20484;-80
2021/06/26 10:07:53;;;;;;;77.10;23.87;;;28.70;1.00;;;;;;5093159;28;20424;-84
2021/06/26 10:10:22;;;;;;;78.33;25.70;;;29.30;1.00;;;;;;5079210;28;20414;-80
2021/06/26 10:12:51;;;;;;;79.83;27.37;;;29.40;1.00;;;;;;5072861;28;20565;-84
2021/06/26 10:15:20;;;;;;;74.97;24.33;;;28.90;1.00;;;;;;5072827;28;20800;-83
2021/06/26 10:17:47;;;;;;;78.57;24.50;;;28.50;1.00;;;;;;5072880;28;20458;-80
2021/06/26 10:20:17;;;;;;;78.03;24.80;;;27.90;1.00;;;;;;5072818;28;20455;-83
2021/06/26 10:22:47;;;;;;;75.93;25.10;;;27.80;1.00;;;;;;5072865;28;20451;-82
2021/06/26 10:25:14;;;;;;;77.77;24.20;;;28.00;1.00;;;;;;5071898;28;20509;-85
2021/06/26 10:27:42;;;;;;;78.33;22.20;;;28.40;1.00;;;;;;5074104;28;20447;-85
2021/06/26 10:30:19;;;;;;;77.30;23.20;;;28.20;1.00;;;;;;5073144;28;20778;-84
2021/06/26 10:32:53;;;;;;;77.33;23.47;;;28.00;1.00;;;;;;5073267;28;20466;-83
2021/06/26 10:35:21;;;;;;;75.30;23.20;;;29.30;1.00;;;;;;5077305;28;20432;-85
2021/06/26 10:38:03;;;;;;;77.33;22.00;;;29.40;1.00;;;;;;5074423;28;20496;-91
2021/06/26 10:40:39;;;;;;;76.53;23.63;;;30.20;1.00;;;;;;5072315;28;20548;-87
2021/06/26 10:43:26;;;;;;;73.10;20.83;;;30.20;1.00;;;;;;5073126;28;20454;-87
2021/06/26 10:46:07;;;;;;;73.83;18.97;;;30.10;1.00;;;;;;5074386;28;20532;-87
2021/06/26 10:48:35;;;;;;;74.00;19.40;;;30.20;1.00;;;;;;5073334;28;20465;-86
2021/06/26 10:51:02;;;;;;;74.57;18.20;;;30.10;1.00;;;;;;5072866;28;20462;-85
2021/06/26 10:53:35;;;;;;;72.40;17.60;;;29.10;1.00;;;;;;5075436;28;20492;-84
2021/06/26 10:56:08;;;;;;;73.97;18.83;;;28.50;1.00;;;;;;5076522;28;20464;-83
2021/06/26 10:58:37;;;;;;;71.03;17.80;;;28.90;1.00;;;;;;5076367;28;20476;-82
2021/06/26 11:01:22;;;;;;;70.47;18.90;;;28.60;1.00;;;;;;5076372;28;20970;-82
2021/06/26 11:03:52;;;;;;;71.00;18.63;;;28.60;1.00;;;;;;5076207;28;20456;-82
2021/06/26 11:06:24;;;;;;;71.13;18.53;;;29.40;1.00;;;;;;5076017;28;20487;-83
2021/06/26 11:08:58;;;;;;;68.13;17.03;;;30.00;1.00;;;;;;5092522;28;20470;-83
2021/06/26 11:11:30;;;;;;;71.10;16.57;;;30.50;1.00;;;;;;5096541;28;20457;-86
2021/06/26 11:14:19;;;;;;;70.87;16.67;;;31.00;1.00;;;;;;5096271;28;20492;-80
2021/06/26 11:16:52;;;;;;;71.87;16.77;;;31.40;1.00;;;;;;5096408;28;20450;-77
2021/06/26 11:19:20;;;;;;;71.77;18.30;;;31.00;1.00;;;;;;5096339;28;20453;-78
2021/06/26 11:21:49;;;;;;;71.60;24.83;;;32.30;1.00;;;;;;5096190;28;20456;-81
2021/06/26 11:24:17;;;;;;;74.93;27.03;;;33.10;1.00;;;;;;5094812;28;20553;-82
2021/06/26 11:26:52;;;;;;;74.00;26.90;;;33.70;1.00;;;;;;5096072;28;20448;-82
2021/06/26 11:29:28;;;;;;;72.50;27.77;;;34.40;1.00;;;;;;5096059;28;20962;-78
2021/06/26 11:31:57;;;;;;;72.90;25.37;;;34.10;1.00;;;;;;5096135;28;20885;-79
2021/06/26 11:34:24;;;;;;;73.73;25.80;;;35.00;1.00;;;;;;5095938;28;20489;-77
2021/06/26 11:37:02;;;;;;;70.87;17.40;;;34.60;1.00;;;;;;5095960;28;20433;-81
2021/06/26 11:39:30;;;;;;;69.97;16.10;;;34.30;1.00;;;;;;5094744;28;20451;-77
2021/06/26 11:41:57;;;;;;;71.43;16.30;;;34.70;1.00;;;;;;5095784;28;20480;-78
2021/06/26 11:44:38;;;;;;;69.10;15.30;;;34.00;1.00;;;;;;5095740;28;20943;-78
2021/06/26 11:47:08;;;;;;;71.27;15.50;;;34.00;1.00;;;;;;5095687;28;20424;-80
2021/06/26 11:49:37;;;;;;;72.80;15.07;;;32.90;1.00;;;;;;5095705;28;20428;-77
2021/06/26 11:52:05;;;;;;;68.37;15.10;;;33.20;1.00;;;;;;5095611;28;20460;-77
2021/06/26 11:54:32;;;;;;;66.90;13.67;;;33.30;1.00;;;;;;5094348;28;20880;-77
2021/06/26 11:56:59;;;;;;;70.67;16.33;;;33.20;1.00;;;;;;5095474;28;20435;-81
2021/06/26 11:59:30;;;;;;;70.37;16.60;;;32.30;1.00;;;;;;5095579;28;20437;-78
2021/06/26 12:01:57;;;;;;;66.17;14.70;;;33.20;1.00;;;;;;5095270;28;20454;-79
2021/06/26 12:04:31;;;;;;;69.87;16.80;;;34.00;1.00;;;;;;5094454;28;20433;-82
2021/06/26 12:06:58;;;;;;;69.73;17.30;;;32.80;1.00;;;;;;5095283;28;20484;-83
2021/06/26 12:09:26;;;;;;;68.77;18.50;;;32.10;1.00;;;;;;5089721;28;20433;-82
2021/06/26 12:11:56;;;;;;;74.57;23.73;;;32.00;1.00;;;;;;5074978;28;20452;-81
2021/06/26 12:14:31;;;;;;;66.90;18.00;;;32.80;1.00;;;;;;5074808;28;20483;-84
2021/06/26 12:17:10;;;;;;;67.53;18.37;;;34.20;1.00;;;;;;5074753;28;20448;-83
2021/06/26 12:19:39;;;;;;;64.30;13.37;;;34.80;1.00;;;;;;5074752;28;20425;-82
2021/06/26 12:22:07;;;;;;;66.40;17.77;;;33.70;1.00;;;;;;5075631;28;20580;-79
2021/06/26 12:24:38;;;;;;;68.43;15.20;;;33.70;1.00;;;;;;5074260;28;20842;-82
2021/06/26 12:27:08;;;;;;;65.87;15.23;;;34.20;1.00;;;;;;5075662;28;20458;-82
2021/06/26 12:29:36;;;;;;;65.67;12.47;;;34.40;1.00;;;;;;5075381;28;20833;-84
2021/06/26 12:32:03;;;;;;;66.57;13.40;;;34.70;1.00;;;;;;5075978;28;20483;-86
2021/06/26 12:34:31;;;;;;;67.70;14.47;;;34.20;1.00;;;;;;5075288;28;20486;-79
2021/06/26 12:37:00;;;;;;;64.57;12.00;;;35.20;1.00;;;;;;5074547;28;20502;-82
2021/06/26 12:39:32;;;;;;;63.50;10.37;;;35.70;1.00;;;;;;5073208;28;20468;-82
2021/06/26 12:42:01;;;;;;;63.87;9.90;;;35.00;1.00;;;;;;5074237;28;21004;-80
2021/06/26 12:44:28;;;;;;;63.27;9.90;;;34.60;1.00;;;;;;5074578;28;20528;-78